Time;durP1;ratioP1;P1;durP2;ratioP2;P2;SDS_P1;SDS_P2;PMS_P1;PMS_P2;Temp;Humidity;BMP_temperature;BMP_pressure;BME280_temperature;BME280_humidity;BME280_pressure;Samples;Min_cycle;Max_cycle;Signal;HPM_P1;HPM_P2
2023/05/11 00:00:06;;;;;;;;;;;;;;;12.33;100.00;101473.38;5163301;28;20347;-78
2023/05/11 00:02:37;;;;;;;;;;;;;;;12.31;100.00;101474.56;5164154;28;20390;-78
2023/05/11 00:05:08;;;;;;;;;;;;;;;12.31;100.00;101470.03;5163827;28;19913;-78
2023/05/11 00:07:39;;;;;;;;;;;;;;;12.31;100.00;101472.72;5164585;28;19917;-78
2023/05/11 00:10:09;;;;;;;;;;;;;;;12.32;100.00;101473.56;5164634;28;19961;-78
2023/05/11 00:12:40;;;;;;;;;;;;;;;12.30;100.00;101470.16;5147991;28;19924;-78
2023/05/11 00:15:10;;;;;;;;;;;;;;;12.29;100.00;101466.63;5164738;28;19984;-78
2023/05/11 00:17:40;;;;;;;;;;;;;;;12.28;100.00;101474.88;5163867;28;20004;-78
2023/05/11 00:20:11;;;;;;;;;;;;;;;12.29;100.00;101463.94;5163387;28;20398;-78
2023/05/11 00:22:41;;;;;;;;;;;;;;;12.30;100.00;101472.84;5164669;28;19959;-78
2023/05/11 00:25:12;;;;;;;;;;;;;;;12.34;100.00;101460.75;5164677;28;19914;-78
2023/05/11 00:27:44;;;;;;;;;;;;;;;12.32;100.00;101466.31;5164201;28;19989;-78
2023/05/11 00:30:15;;;;;;;;;;;;;;;12.30;100.00;101467.47;5147490;28;19964;-78
2023/05/11 00:32:45;;;;;;;;;;;;;;;12.31;100.00;101463.81;5164292;28;20252;-77
2023/05/11 00:35:16;;;;;;;;;;;;;;;12.28;100.00;101462.25;5164549;28;19942;-78
2023/05/11 00:37:46;;;;;;;;;;;;;;;12.28;100.00;101464.94;5150854;28;19989;-78
2023/05/11 00:40:17;;;;;;;;;;;;;;;12.26;100.00;101464.28;5164294;28;20012;-78
2023/05/11 00:42:47;;;;;;;;;;;;;;;12.26;100.00;101461.59;5164254;28;19968;-78
2023/05/11 00:45:18;;;;;;;;;;;;;;;12.26;100.00;101460.75;5163076;28;19920;-78
2023/05/11 00:47:48;;;;;;;;;;;;;;;12.24;100.00;101470.81;5162373;28;20005;-77
2023/05/11 00:50:19;;;;;;;;;;;;;;;12.21;100.00;101463.09;5162258;28;19952;-78
2023/05/11 00:52:50;;;;;;;;;;;;;;;12.19;100.00;101464.06;5163775;28;19917;-77
2023/05/11 00:55:20;;;;;;;;;;;;;;;12.17;100.00;101460.72;5164012;28;20394;-78
2023/05/11 00:57:51;;;;;;;;;;;;;;;12.16;100.00;101461.72;5163533;28;19910;-77
2023/05/11 01:00:21;;;;;;;;;;;;;;;12.14;100.00;101462.88;5163972;28;20371;-78
2023/05/11 01:02:52;;;;;;;;;;;;;;;12.18;100.00;101461.56;5164562;28;19913;-78
2023/05/11 01:05:28;;;;;;;;;;;;;;;12.15;100.00;101460.03;5164248;28;20004;-78
2023/05/11 01:08:03;;;;;;;;;;;;;;;12.13;100.00;101456.66;5163330;28;20459;-78
2023/05/11 01:10:53;;;;;;;;;;;;;;;12.14;100.00;101458.31;5163027;28;19914;-78
2023/05/11 01:13:43;;;;;;;;;;;;;;;12.10;100.00;101459.69;5163755;28;20005;-79
2023/05/11 01:16:17;;;;;;;;;;;;;;;12.10;100.00;101461.53;5163424;28;20375;-77
2023/05/11 01:18:57;;;;;;;;;;;;;;;12.08;100.00;101453.59;5163570;28;19917;-79
2023/05/11 01:21:49;;;;;;;;;;;;;;;12.07;100.00;101451.09;5162335;28;20338;-77
2023/05/11 01:24:36;;;;;;;;;;;;;;;12.06;100.00;101454.78;5163357;28;19913;-77
2023/05/11 01:27:35;;;;;;;;;;;;;;;12.09;100.00;101457.13;5163031;28;19980;-77
2023/05/11 01:30:24;;;;;;;;;;;;;;;12.07;100.00;101456.47;5152356;28;19918;-78
2023/05/11 01:32:57;;;;;;;;;;;;;;;12.06;100.00;101460.16;5163144;28;20024;-77
2023/05/11 01:35:30;;;;;;;;;;;;;;;12.03;100.00;101461.31;5162736;28;19949;-79
2023/05/11 01:38:01;;;;;;;;;;;;;;;12.01;100.00;101457.13;5151425;28;19993;-77
2023/05/11 01:40:33;;;;;;;;;;;;;;;12.00;100.00;101450.91;5163631;28;20087;-77
2023/05/11 01:43:06;;;;;;;;;;;;;;;12.02;100.00;101454.25;5163081;28;20431;-77
2023/05/11 01:45:39;;;;;;;;;;;;;;;12.00;100.00;101458.97;5163152;28;20386;-78
2023/05/11 01:48:12;;;;;;;;;;;;;;;11.99;100.00;101459.94;5162247;28;19913;-78
2023/05/11 01:50:43;;;;;;;;;;;;;;;12.03;100.00;101455.94;5161673;28;19914;-80
2023/05/11 01:53:16;;;;;;;;;;;;;;;12.04;100.00;101465.69;5163018;28;19921;-78
2023/05/11 01:55:48;;;;;;;;;;;;;;;12.05;100.00;101453.06;5162715;28;20417;-79
2023/05/11 01:58:20;;;;;;;;;;;;;;;12.06;100.00;101455.63;5162625;28;20343;-78
2023/05/11 02:00:52;;;;;;;;;;;;;;;12.04;100.00;101454.91;5161767;28;19914;-77
2023/05/11 02:03:23;;;;;;;;;;;;;;;12.01;100.00;101451.75;5163152;28;19914;-77
2023/05/11 02:05:56;;;;;;;;;;;;;;;11.97;100.00;101453.91;5161878;28;19920;-77
2023/05/11 02:08:28;;;;;;;;;;;;;;;11.92;100.00;101464.28;5162302;28;19944;-79
2023/05/11 02:11:01;;;;;;;;;;;;;;;11.88;100.00;101457.53;5162739;28;19918;-78
2023/05/11 02:13:32;;;;;;;;;;;;;;;11.85;100.00;101460.56;5162709;28;19924;-78
2023/05/11 02:16:04;;;;;;;;;;;;;;;11.83;100.00;101457.19;5162730;28;19964;-78
2023/05/11 02:18:38;;;;;;;;;;;;;;;11.80;100.00;101450.25;5159994;28;19967;-79
2023/05/11 02:21:10;;;;;;;;;;;;;;;11.77;100.00;101455.94;5162809;28;19914;-77
2023/05/11 02:23:40;;;;;;;;;;;;;;;11.79;100.00;101461.97;5161511;28;19921;-77
2023/05/11 02:26:13;;;;;;;;;;;;;;;11.78;100.00;101457.63;5162883;28;20394;-79
2023/05/11 02:28:44;;;;;;;;;;;;;;;11.76;100.00;101465.00;5162336;28;19918;-78
2023/05/11 02:31:16;;;;;;;;;;;;;;;11.75;100.00;101459.81;5162027;28;19972;-77
2023/05/11 02:33:48;;;;;;;;;;;;;;;11.73;100.00;101459.94;5161690;28;20291;-77
2023/05/11 02:36:20;;;;;;;;;;;;;;;11.73;100.00;101468.00;5163884;28;19914;-77
2023/05/11 02:38:53;;;;;;;;;;;;;;;11.71;100.00;101458.44;5161691;28;19920;-77
2023/05/11 02:41:27;;;;;;;;;;;;;;;11.68;100.00;101468.47;5162077;28;19918;-78
2023/05/11 02:44:00;;;;;;;;;;;;;;;11.70;100.00;101456.72;5163207;28;19921;-77
2023/05/11 02:46:32;;;;;;;;;;;;;;;11.71;100.00;101461.13;5161368;28;19918;-78
2023/05/11 02:49:06;;;;;;;;;;;;;;;11.67;100.00;101456.03;5163371;28;19968;-77
2023/05/11 02:51:38;;;;;;;;;;;;;;;11.67;100.00;101461.41;5162160;28;19928;-77
2023/05/11 02:54:09;;;;;;;;;;;;;;;11.65;100.00;101466.13;5162561;28;19980;-78
2023/05/11 02:56:40;;;;;;;;;;;;;;;11.66;100.00;101462.44;5161155;28;19950;-80
2023/05/11 02:59:11;;;;;;;;;;;;;;;11.63;100.00;101453.84;5162497;28;19949;-78
2023/05/11 03:01:41;;;;;;;;;;;;;;;11.61;100.00;101451.31;5161954;28;20294;-77
2023/05/11 03:04:12;;;;;;;;;;;;;;;11.62;100.00;101461.06;5162909;28;19921;-79
2023/05/11 03:06:42;;;;;;;;;;;;;;;11.61;100.00;101453.16;5161545;28;19918;-78
2023/05/11 03:09:13;;;;;;;;;;;;;;;11.57;100.00;101454.47;5162518;28;19916;-78
2023/05/11 03:11:43;;;;;;;;;;;;;;;11.55;100.00;101454.63;5162042;28;19918;-77
2023/05/11 03:14:14;;;;;;;;;;;;;;;11.52;100.00;101454.94;5162666;28;19913;-78
2023/05/11 03:16:44;;;;;;;;;;;;;;;11.50;100.00;101451.59;5159907;28;19914;-79
2023/05/11 03:19:15;;;;;;;;;;;;;;;11.51;100.00;101455.09;5161532;28;20350;-77
2023/05/11 03:21:46;;;;;;;;;;;;;;;11.51;100.00;101465.84;5161899;28;20376;-78
2023/05/11 03:24:17;;;;;;;;;;;;;;;11.51;100.00;101461.31;5162555;28;19921;-77
2023/05/11 03:26:49;;;;;;;;;;;;;;;11.55;100.00;101459.16;5161868;28;19914;-77
2023/05/11 03:29:20;;;;;;;;;;;;;;;11.53;100.00;101455.78;5162237;28;19914;-78
2023/05/11 03:31:50;;;;;;;;;;;;;;;11.54;100.00;101454.78;5165557;28;19933;-77
2023/05/11 03:34:21;;;;;;;;;;;;;;;11.56;100.00;101450.94;5165921;28;19914;-79
2023/05/11 03:36:51;;;;;;;;;;;;;;;11.58;100.00;101448.09;5163862;28;19913;-78
2023/05/11 03:39:22;;;;;;;;;;;;;;;11.60;100.00;101455.00;5166056;28;19914;-77
2023/05/11 03:41:53;;;;;;;;;;;;;;;11.59;100.00;101447.91;5165082;28;20419;-77
2023/05/11 03:44:24;;;;;;;;;;;;;;;11.61;100.00;101450.47;5165922;28;20012;-78
2023/05/11 03:46:55;;;;;;;;;;;;;;;11.61;100.00;101450.47;5163269;28;19926;-77
2023/05/11 03:49:26;;;;;;;;;;;;;;;11.64;100.00;101458.19;5164525;28;20020;-77
2023/05/11 03:51:56;;;;;;;;;;;;;;;11.60;100.00;101452.31;5164097;28;19918;-77
2023/05/11 03:54:27;;;;;;;;;;;;;;;11.59;100.00;101449.78;5165438;28;19917;-77
2023/05/11 03:56:57;;;;;;;;;;;;;;;11.59;100.00;101453.28;5164950;28;20450;-79
2023/05/11 03:59:27;;;;;;;;;;;;;;;11.57;100.00;101449.94;5165916;28;19957;-78
2023/05/11 04:02:00;;;;;;;;;;;;;;;11.55;100.00;101454.63;5165150;28;19960;-78
2023/05/11 04:04:30;;;;;;;;;;;;;;;11.54;100.00;101452.09;5164246;28;20437;-78
2023/05/11 04:07:01;;;;;;;;;;;;;;;11.54;100.00;101460.16;5164447;28;19913;-78
2023/05/11 04:09:31;;;;;;;;;;;;;;;11.51;100.00;101461.31;5163961;28;19918;-77
2023/05/11 04:12:02;;;;;;;;;;;;;;;11.49;100.00;101462.47;5163803;28;20004;-79
2023/05/11 04:14:32;;;;;;;;;;;;;;;11.46;100.00;101460.09;5165431;28;20447;-78
2023/05/11 04:17:03;;;;;;;;;;;;;;;11.46;100.00;101463.63;5164513;28;19914;-78
2023/05/11 04:19:33;;;;;;;;;;;;;;;11.49;100.00;101460.63;5162979;28;19921;-78
2023/05/11 04:22:03;;;;;;;;;;;;;;;11.46;100.00;101460.09;5164831;28;19913;-77
2023/05/11 04:24:34;;;;;;;;;;;;;;;11.46;100.00;101458.25;5165445;28;19925;-78
2023/05/11 04:27:04;;;;;;;;;;;;;;;11.49;100.00;101465.16;5164857;28;19914;-78
2023/05/11 04:29:35;;;;;;;;;;;;;;;11.46;100.00;101471.69;5164725;28;20299;-78
2023/05/11 04:32:05;;;;;;;;;;;;;;;11.44;100.00;101468.31;5164404;28;20307;-78
2023/05/11 04:34:35;;;;;;;;;;;;;;;11.46;100.00;101463.63;5165098;28;20164;-78
2023/05/11 04:37:06;;;;;;;;;;;;;;;11.45;100.00;101472.72;5164114;28;19921;-78
2023/05/11 04:39:36;;;;;;;;;;;;;;;11.48;100.00;101476.91;5163364;28;19918;-80
2023/05/11 04:42:07;;;;;;;;;;;;;;;11.47;100.00;101472.53;5163466;28;20268;-77
2023/05/11 04:44:38;;;;;;;;;;;;;;;11.51;100.00;101479.28;5164479;28;19984;-77
2023/05/11 04:47:08;;;;;;;;;;;;;;;11.51;100.00;101477.44;5163640;28;19921;-77
2023/05/11 04:49:38;;;;;;;;;;;;;;;11.50;100.00;101478.44;5164453;28;20379;-79
2023/05/11 04:52:09;;;;;;;;;;;;;;;11.51;100.00;101480.13;5164340;28;19924;-78
2023/05/11 04:54:39;;;;;;;;;;;;;;;11.55;100.00;101481.50;5163726;28;19914;-78
2023/05/11 04:57:10;;;;;;;;;;;;;;;11.57;100.00;101484.88;5164029;28;20322;-78
2023/05/11 04:59:40;;;;;;;;;;;;;;;11.65;100.00;101484.09;5164159;28;20384;-79
2023/05/11 05:02:11;;;;;;;;;;;;;;;11.67;100.00;101484.78;5164489;28;19913;-78
2023/05/11 05:04:41;;;;;;;;;;;;;;;11.61;100.00;101480.03;5165580;28;19917;-78
2023/05/11 05:07:11;;;;;;;;;;;;;;;11.62;100.00;101484.41;5164550;28;19961;-78
2023/05/11 05:09:42;;;;;;;;;;;;;;;11.65;100.00;101490.31;5163761;28;19924;-78
2023/05/11 05:12:12;;;;;;;;;;;;;;;11.60;100.00;101484.56;5163142;28;20004;-77
2023/05/11 05:14:43;;;;;;;;;;;;;;;11.68;100.00;101489.13;5163843;28;19914;-77
2023/05/11 05:17:13;;;;;;;;;;;;;;;11.66;100.00;101492.00;5163467;28;19914;-77
2023/05/11 05:19:43;;;;;;;;;;;;;;;11.75;100.00;101500.97;5161908;28;19925;-79
2023/05/11 05:22:14;;;;;;;;;;;;;;;11.76;100.00;101493.75;5162338;28;19922;-77
2023/05/11 05:24:45;;;;;;;;;;;;;;;11.78;100.00;101497.09;5163892;28;19941;-77
2023/05/11 05:27:15;;;;;;;;;;;;;;;11.80;100.00;101503.19;5163458;28;19960;-76
2023/05/11 05:29:45;;;;;;;;;;;;;;;11.78;100.00;101507.84;5163710;28;20000;-77
2023/05/11 05:32:16;;;;;;;;;;;;;;;11.74;100.00;101503.78;5162202;28;20004;-77
2023/05/11 05:34:46;;;;;;;;;;;;;;;11.80;100.00;101513.94;5162520;28;19960;-77
2023/05/11 05:37:16;;;;;;;;;;;;;;;11.84;100.00;101509.94;5148734;28;19922;-78
2023/05/11 05:39:47;;;;;;;;;;;;;;;11.70;100.00;101516.72;5163648;28;19980;-78
2023/05/11 05:42:17;;;;;;;;;;;;;;;11.81;100.00;101507.56;5163967;28;20342;-77
2023/05/11 05:44:48;;;;;;;;;;;;;;;11.81;100.00;101523.69;5163295;28;19914;-77
2023/05/11 05:47:18;;;;;;;;;;;;;;;11.83;100.00;101527.91;5161817;28;19914;-77
2023/05/11 05:49:49;;;;;;;;;;;;;;;11.81;100.00;101529.06;5163334;28;19914;-77
2023/05/11 05:52:19;;;;;;;;;;;;;;;11.83;100.00;101527.91;5161193;28;19924;-77
2023/05/11 05:54:49;;;;;;;;;;;;;;;11.81;100.00;101532.59;5163481;28;19914;-78
2023/05/11 05:57:20;;;;;;;;;;;;;;;11.91;100.00;101524.44;5162810;28;19936;-78
2023/05/11 05:59:50;;;;;;;;;;;;;;;11.99;100.00;101537.94;5163515;28;20375;-80
2023/05/11 06:02:20;;;;;;;;;;;;;;;12.09;100.00;101538.66;5163313;28;19921;-77
2023/05/11 06:04:51;;;;;;;;;;;;;;;12.19;100.00;101544.75;5163095;28;20437;-78
2023/05/11 06:07:21;;;;;;;;;;;;;;;12.29;100.00;101541.97;5162612;28;19918;-77
2023/05/11 06:09:52;;;;;;;;;;;;;;;12.45;100.00;101541.22;5162567;28;19936;-78
2023/05/11 06:12:22;;;;;;;;;;;;;;;12.55;100.00;101533.84;5161631;28;19949;-77
2023/05/11 06:14:52;;;;;;;;;;;;;;;12.79;100.00;101540.31;5162776;28;19914;-77
2023/05/11 06:17:23;;;;;;;;;;;;;;;13.08;100.00;101543.41;5162883;28;20048;-77
2023/05/11 06:19:53;;;;;;;;;;;;;;;13.11;100.00;101537.72;5163051;28;19944;-77
2023/05/11 06:22:23;;;;;;;;;;;;;;;13.28;100.00;101529.66;5162836;28;19952;-78
2023/05/11 06:24:54;;;;;;;;;;;;;;;13.39;100.00;101530.16;5162066;28;20275;-78
2023/05/11 06:27:24;;;;;;;;;;;;;;;13.39;100.00;101529.34;5161648;28;19956;-78
2023/05/11 06:29:55;;;;;;;;;;;;;;;13.40;100.00;101531.00;5160730;28;19953;-78
2023/05/11 06:32:25;;;;;;;;;;;;;;;13.58;100.00;101534.38;5161627;28;19922;-78
2023/05/11 06:34:55;;;;;;;;;;;;;;;13.79;100.00;101530.31;5159149;28;19918;-77
2023/05/11 06:37:28;;;;;;;;;;;;;;;13.90;100.00;101533.50;5160190;28;19918;-77
2023/05/11 06:39:58;;;;;;;;;;;;;;;13.89;100.00;101539.06;5153738;28;19914;-77
2023/05/11 06:42:28;;;;;;;;;;;;;;;13.93;100.00;101545.81;5159595;28;19920;-77
2023/05/11 06:44:59;;;;;;;;;;;;;;;13.88;100.00;101545.47;5152052;28;19957;-77
2023/05/11 06:47:29;;;;;;;;;;;;;;;13.92;100.00;101550.38;5158342;28;20729;-78
2023/05/11 06:50:00;;;;;;;;;;;;;;;13.63;100.00;101547.38;5159617;28;19941;-78
2023/05/11 06:52:30;;;;;;;;;;;;;;;13.67;100.00;101546.84;5159668;28;20275;-77
2023/05/11 06:55:01;;;;;;;;;;;;;;;13.53;100.00;101552.94;5159779;28;19917;-77
2023/05/11 06:57:31;;;;;;;;;;;;;;;13.59;100.00;101549.53;5148321;28;20028;-77
2023/05/11 07:00:01;;;;;;;;;;;;;;;13.47;100.00;101550.91;5158734;28;19960;-77
2023/05/11 07:02:32;;;;;;;;;;;;;;;13.61;100.00;101550.25;5158386;28;19964;-77
2023/05/11 07:05:02;;;;;;;;;;;;;;;13.63;100.00;101552.75;5164319;28;20376;-77
2023/05/11 07:07:33;;;;;;;;;;;;;;;13.71;100.00;101550.06;5163881;28;19913;-77
2023/05/11 07:10:04;;;;;;;;;;;;;;;13.68;100.00;101545.00;5162958;28;20397;-77
2023/05/11 07:12:35;;;;;;;;;;;;;;;13.75;100.00;101546.00;5160571;28;19922;-77
2023/05/11 07:15:06;;;;;;;;;;;;;;;13.80;100.00;101550.88;5162429;28;19913;-78
2023/05/11 07:17:36;;;;;;;;;;;;;;;13.79;100.00;101555.44;5163890;28;19921;-77
2023/05/11 07:20:07;;;;;;;;;;;;;;;13.76;100.00;101555.78;5163407;28;20049;-78
2023/05/11 07:22:37;;;;;;;;;;;;;;;13.81;100.00;101553.44;5162954;28;19918;-78
2023/05/11 07:25:08;;;;;;;;;;;;;;;13.99;100.00;101556.75;5164574;28;20009;-77
2023/05/11 07:27:38;;;;;;;;;;;;;;;14.10;100.00;101552.84;5162142;28;19941;-79
2023/05/11 07:30:09;;;;;;;;;;;;;;;14.14;100.00;101562.28;5163790;28;19983;-77
2023/05/11 07:32:39;;;;;;;;;;;;;;;14.14;100.00;101553.34;5147813;28;20288;-77
2023/05/11 07:35:10;;;;;;;;;;;;;;;14.17;100.00;101561.97;5164356;28;19925;-79
2023/05/11 07:37:40;;;;;;;;;;;;;;;14.23;100.00;101555.88;5165296;28;19969;-77
2023/05/11 07:40:11;;;;;;;;;;;;;;;14.19;100.00;101557.22;5164114;28;20008;-77
2023/05/11 07:42:41;;;;;;;;;;;;;;;14.18;100.00;101568.19;5164359;28;19920;-77
2023/05/11 07:45:12;;;;;;;;;;;;;;;14.18;100.00;101571.72;5165774;28;19914;-77
2023/05/11 07:47:43;;;;;;;;;;;;;;;14.39;100.00;101571.16;5164544;28;19913;-77
2023/05/11 07:50:14;;;;;;;;;;;;;;;14.52;100.00;101565.25;5165692;28;19925;-77
2023/05/11 07:52:44;;;;;;;;;;;;;;;14.70;100.00;101568.53;5165352;28;20069;-77
2023/05/11 07:55:14;;;;;;;;;;;;;;;14.84;100.00;101571.53;5165381;28;19918;-78
2023/05/11 07:57:45;;;;;;;;;;;;;;;14.82;100.00;101568.16;5163358;28;19921;-76
2023/05/11 08:00:15;;;;;;;;;;;;;;;14.84;100.00;101558.00;5164785;28;19921;-78
2023/05/11 08:02:46;;;;;;;;;;;;;;;14.74;100.00;101563.63;5164270;28;19914;-77
2023/05/11 08:05:17;;;;;;;;;;;;;;;14.80;100.00;101568.31;5165282;28;19921;-77
2023/05/11 08:07:47;;;;;;;;;;;;;;;14.86;100.00;101566.78;5163646;28;20000;-77
2023/05/11 08:10:17;;;;;;;;;;;;;;;14.80;100.00;101570.19;5165173;28;19937;-77
2023/05/11 08:12:48;;;;;;;;;;;;;;;15.21;100.00;101568.94;5163367;28;19957;-77
2023/05/11 08:15:18;;;;;;;;;;;;;;;15.35;100.00;101569.19;5150944;28;19924;-77
2023/05/11 08:17:49;;;;;;;;;;;;;;;15.71;100.00;101564.00;5163137;28;19921;-77
2023/05/11 08:20:19;;;;;;;;;;;;;;;15.69;100.00;101566.91;5164610;28;20208;-77
2023/05/11 08:22:49;;;;;;;;;;;;;;;15.95;100.00;101568.38;5164680;28;19920;-77
2023/05/11 08:25:20;;;;;;;;;;;;;;;16.15;100.00;101555.97;5164844;28;19914;-77
2023/05/11 08:27:50;;;;;;;;;;;;;;;16.34;100.00;101560.00;5164389;28;19920;-77
2023/05/11 08:30:20;;;;;;;;;;;;;;;17.08;100.00;101559.94;5164552;28;19937;-77
2023/05/11 08:32:51;;;;;;;;;;;;;;;17.34;100.00;101560.19;5164496;28;19922;-77
2023/05/11 08:35:22;;;;;;;;;;;;;;;17.31;100.00;101549.72;5164463;28;20002;-77
2023/05/11 08:37:53;;;;;;;;;;;;;;;17.12;100.00;101552.22;5162012;28;20268;-77
2023/05/11 08:40:25;;;;;;;;;;;;;;;16.92;100.00;101549.31;5162840;28;19964;-77
2023/05/11 08:42:58;;;;;;;;;;;;;;;16.80;100.00;101552.50;5156138;28;19914;-78
2023/05/11 08:45:30;;;;;;;;;;;;;;;17.46;100.00;101546.13;5163092;28;19913;-77
2023/05/11 08:48:02;;;;;;;;;;;;;;;17.40;100.00;101549.59;5163618;28;19940;-78
2023/05/11 08:50:32;;;;;;;;;;;;;;;17.72;100.00;101549.09;5162743;28;20264;-77
2023/05/11 08:53:03;;;;;;;;;;;;;;;18.54;100.00;101545.66;5164538;28;19918;-77
2023/05/11 08:55:34;;;;;;;;;;;;;;;18.77;100.00;101550.78;5164172;28;20379;-78
2023/05/11 08:58:05;;;;;;;;;;;;;;;18.92;100.00;101549.81;5163400;28;19914;-77
2023/05/11 09:00:35;;;;;;;;;;;;;;;18.34;100.00;101550.16;5163847;28;20402;-78
2023/05/11 09:03:07;;;;;;;;;;;;;;;17.61;100.00;101555.00;5163755;28;19914;-78
2023/05/11 09:05:38;;;;;;;;;;;;;;;18.04;100.00;101554.97;5162672;28;19917;-78
2023/05/11 09:08:11;;;;;;;;;;;;;;;18.60;100.00;101554.88;5163037;28;22333;-78
2023/05/11 09:10:43;;;;;;;;;;;;;;;18.38;100.00;101555.00;5162085;28;19961;-78
2023/05/11 09:13:13;;;;;;;;;;;;;;;18.17;100.00;101560.47;5163150;28;19924;-78
2023/05/11 09:15:43;;;;;;;;;;;;;;;17.84;100.00;101555.66;5162592;28;19914;-78
2023/05/11 09:18:14;;;;;;;;;;;;;;;17.58;100.00;101558.13;5161498;28;19921;-78
2023/05/11 09:20:44;;;;;;;;;;;;;;;17.04;100.00;101564.06;5163541;28;19920;-77
2023/05/11 09:23:16;;;;;;;;;;;;;;;17.07;100.00;101561.81;5163588;28;20386;-77
2023/05/11 09:25:47;;;;;;;;;;;;;;;16.95;100.00;101557.06;5163183;28;19914;-77
2023/05/11 09:28:36;;;;;;;;;;;;;;;17.07;100.00;101563.69;5161930;28;19914;-78
2023/05/11 09:31:07;;;;;;;;;;;;;;;18.19;100.00;101561.13;5163277;28;19940;-77
2023/05/11 09:33:37;;;;;;;;;;;;;;;18.74;100.00;101562.09;5162049;28;19926;-77
2023/05/11 09:36:21;;;;;;;;;;;;;;;18.69;100.00;101563.75;5162915;28;19974;-77
2023/05/11 09:38:51;;;;;;;;;;;;;;;18.33;100.00;101562.91;5163590;28;19914;-77
2023/05/11 09:41:22;;;;;;;;;;;;;;;18.60;100.00;101554.88;5161667;28;19968;-78
2023/05/11 09:43:52;;;;;;;;;;;;;;;18.74;100.00;101558.53;5162212;28;20282;-77
2023/05/11 09:46:23;;;;;;;;;;;;;;;19.05;100.00;101563.44;5162789;28;19921;-77
2023/05/11 09:49:26;;;;;;;;;;;;;;;19.19;100.00;101553.44;5162056;28;20498;-77
2023/05/11 09:51:59;;;;;;;;;;;;;;;19.15;100.00;101559.28;5162582;28;19914;-77
2023/05/11 09:54:30;;;;;;;;;;;;;;;19.29;100.00;101567.50;5142277;28;19956;-77
2023/05/11 09:57:00;;;;;;;;;;;;;;;19.09;100.00;101565.56;5157942;28;20396;-78
2023/05/11 09:59:47;;;;;;;;;;;;;;;19.17;100.00;101564.50;5161778;28;20409;-77
2023/05/11 10:02:20;;;;;;;;;;;;;;;18.71;100.00;101558.94;5161951;28;19918;-77
2023/05/11 10:04:51;;;;;;;;;;;;;;;18.59;100.00;101558.66;5162177;28;19925;-77
2023/05/11 10:07:22;;;;;;;;;;;;;;;18.28;100.00;101553.69;5164317;28;19914;-77
2023/05/11 10:09:54;;;;;;;;;;;;;;;18.04;100.00;101553.09;5164546;28;19960;-77
2023/05/11 10:12:25;;;;;;;;;;;;;;;17.87;100.00;101562.56;5141971;28;20351;-77
2023/05/11 10:14:59;;;;;;;;;;;;;;;17.82;100.00;101562.31;5174297;28;19957;-77
2023/05/11 10:17:30;;;;;;;;;;;;;;;17.70;100.00;101558.44;5162436;28;19914;-77
2023/05/11 10:20:02;;;;;;;;;;;;;;;17.83;100.00;101556.72;5161818;28;19924;-77
2023/05/11 10:22:32;;;;;;;;;;;;;;;18.03;100.00;101547.88;5161356;28;19974;-77
2023/05/11 10:25:05;;;;;;;;;;;;;;;18.36;100.00;101554.34;5161531;28;19918;-78
2023/05/11 10:27:35;;;;;;;;;;;;;;;18.78;100.00;101552.50;5161240;28;19961;-77
2023/05/11 10:30:06;;;;;;;;;;;;;;;19.23;100.00;101554.69;5162380;28;19914;-77
2023/05/11 10:32:36;;;;;;;;;;;;;;;18.95;100.00;101544.81;5162103;28;19929;-77
2023/05/11 10:35:07;;;;;;;;;;;;;;;18.80;100.00;101539.53;5162950;28;19918;-77
2023/05/11 10:37:39;;;;;;;;;;;;;;;18.56;100.00;101542.72;5163064;28;20299;-77
2023/05/11 10:40:10;;;;;;;;;;;;;;;18.71;100.00;101537.19;5169020;28;20025;-77
2023/05/11 10:42:50;;;;;;;;;;;;;;;19.18;100.00;101541.75;5167699;28;19914;-77
2023/05/11 10:45:40;;;;;;;;;;;;;;;18.95;100.00;101535.81;5169627;28;19913;-78
2023/05/11 10:48:17;;;;;;;;;;;;;;;18.48;100.00;101535.59;5168532;28;20008;-77
2023/05/11 10:51:06;;;;;;;;;;;;;;;18.49;100.00;101539.16;5167982;28;19914;-77
2023/05/11 10:53:37;;;;;;;;;;;;;;;18.66;100.00;101539.66;5168961;28;20390;-77
2023/05/11 10:56:27;;;;;;;;;;;;;;;18.49;100.00;101533.72;5169369;28;20376;-77
2023/05/11 10:59:16;;;;;;;;;;;;;;;18.66;100.00;101532.31;5167986;28;19914;-77
2023/05/11 11:01:50;;;;;;;;;;;;;;;18.77;100.00;101528.22;5167187;28;20394;-78
2023/05/11 11:04:22;;;;;;;;;;;;;;;18.90;100.00;101525.56;5167853;28;19933;-77
2023/05/11 11:07:03;;;;;;;;;;;;;;;18.97;100.00;101526.41;5168579;28;20366;-78
2023/05/11 11:09:52;;;;;;;;;;;;;;;18.99;100.00;101529.75;5168365;28;19949;-78
2023/05/11 11:12:25;;;;;;;;;;;;;;;19.08;100.00;101522.25;5156389;28;20393;-78
2023/05/11 11:14:57;;;;;;;;;;;;;;;19.18;100.00;101522.69;5167582;28;19914;-77
2023/05/11 11:17:30;;;;;;;;;;;;;;;19.30;100.00;101522.91;5168313;28;19960;-77
2023/05/11 11:20:03;;;;;;;;;;;;;;;19.62;100.00;101513.94;5168499;28;19921;-77
2023/05/11 11:22:33;;;;;;;;;;;;;;;19.82;100.00;101518.53;5167422;28;20079;-77
2023/05/11 11:25:05;;;;;;;;;;;;;;;19.87;100.00;101514.13;5169116;28;20008;-77
2023/05/11 11:27:51;;;;;;;;;;;;;;;20.29;100.00;101501.06;5168739;28;19917;-77
2023/05/11 11:30:22;;;;;;;;;;;;;;;20.31;100.00;101506.28;5167752;28;20024;-76
2023/05/11 11:32:54;;;;;;;;;;;;;;;20.20;100.00;101505.06;5166915;28;19922;-75
2023/05/11 11:35:44;;;;;;;;;;;;;;;19.98;100.00;101492.75;5169310;28;19965;-78
2023/05/11 11:38:17;;;;;;;;;;;;;;;20.31;100.00;101498.13;5167836;28;20264;-77
2023/05/11 11:40:51;;;;;;;;;;;;;;;20.48;100.00;101499.34;5165875;28;19914;-77
2023/05/11 11:43:23;;;;;;;;;;;;;;;20.47;100.00;101496.84;5158900;28;20674;-77
2023/05/11 11:45:54;;;;;;;;;;;;;;;21.02;100.00;101494.44;5167669;28;20338;-77
2023/05/11 11:48:44;;;;;;;;;;;;;;;20.99;100.00;101493.00;5167185;28;20314;-77
2023/05/11 11:51:14;;;;;;;;;;;;;;;21.24;100.00;101492.22;5151303;28;19918;-77
2023/05/11 11:53:57;;;;;;;;;;;;;;;21.77;100.00;101500.81;5164507;28;19921;-77
2023/05/11 11:56:27;;;;;;;;;;;;;;;21.80;100.00;101489.44;5165174;28;20294;-77
2023/05/11 11:58:59;;;;;;;;;;;;;;;21.64;100.00;101492.75;5165368;28;19918;-78
2023/05/11 12:01:34;;;;;;;;;;;;;;;21.53;100.00;101486.09;5165114;28;19914;-77
2023/05/11 12:04:23;;;;;;;;;;;;;;;21.22;100.00;101489.69;5165061;28;19914;-77
2023/05/11 12:06:56;;;;;;;;;;;;;;;20.79;100.00;101493.13;5162964;28;19968;-77
2023/05/11 12:09:27;;;;;;;;;;;;;;;20.81;100.00;101493.72;5165220;28;19921;-77
2023/05/11 12:11:57;;;;;;;;;;;;;;;20.97;100.00;101491.53;5164809;28;19913;-78
2023/05/11 12:14:29;;;;;;;;;;;;;;;20.98;100.00;101495.94;5163428;28;20331;-77
2023/05/11 12:17:02;;;;;;;;;;;;;;;20.88;100.00;101488.22;5164117;28;19953;-77
2023/05/11 12:19:32;;;;;;;;;;;;;;;21.02;100.00;101487.09;5164545;28;20367;-78
2023/05/11 12:22:02;;;;;;;;;;;;;;;21.40;100.00;101476.16;5163553;28;19914;-78
2023/05/11 12:24:33;;;;;;;;;;;;;;;21.77;100.00;101480.88;5164753;28;19914;-78
2023/05/11 12:27:03;;;;;;;;;;;;;;;21.64;100.00;101465.47;5163618;28;19914;-78
2023/05/11 12:29:34;;;;;;;;;;;;;;;21.90;100.00;101475.28;5164215;28;19925;-78
2023/05/11 12:32:04;;;;;;;;;;;;;;;22.02;100.00;101470.72;5165159;28;20439;-80
2023/05/11 12:34:35;;;;;;;;;;;;;;;21.29;100.00;101473.28;5164445;28;20017;-78
2023/05/11 12:37:05;;;;;;;;;;;;;;;21.51;100.00;101468.28;5164137;28;19921;-79
2023/05/11 12:39:36;;;;;;;;;;;;;;;21.59;100.00;101470.75;5164247;28;20236;-79
2023/05/11 12:42:06;;;;;;;;;;;;;;;21.76;100.00;101469.09;5163297;28;19920;-79
2023/05/11 12:44:39;;;;;;;;;;;;;;;21.75;100.00;101464.72;5166517;28;20009;-79
2023/05/11 12:47:09;;;;;;;;;;;;;;;21.61;100.00;101469.47;5161109;28;20364;-78
2023/05/11 12:49:41;;;;;;;;;;;;;;;21.41;100.00;101466.06;5159684;28;20009;-79
2023/05/11 12:52:12;;;;;;;;;;;;;;;20.93;100.00;101461.13;5149548;28;20273;-78